Time;durP1;ratioP1;P1;durP2;ratioP2;P2;SDS_P1;SDS_P2;PMS_P1;PMS_P2;Temp;Humidity;BMP_temperature;BMP_pressure;BME280_temperature;BME280_humidity;BME280_pressure;Samples;Min_cycle;Max_cycle;Signal;HPM_P1;HPM_P2
2023/09/04 00:00:25;;;;;;;13.05;3.13;;;;;;;17.09;83.55;101223.44;5127625;28;20130;-61
2023/09/04 00:02:50;;;;;;;5.00;2.80;;;;;;;17.08;83.51;101221.72;5127481;28;20475;-61
2023/09/04 00:05:18;;;;;;;9.88;2.55;;;;;;;17.08;83.54;101226.97;5127180;27;20038;-61
2023/09/04 00:07:44;;;;;;;7.60;2.70;;;;;;;17.06;83.80;101222.66;5127741;28;20075;-61
2023/09/04 00:10:10;;;;;;;3.65;2.30;;;;;;;17.02;83.78;101216.59;5127542;28;20027;-61
2023/09/04 00:12:35;;;;;;;4.45;2.45;;;;;;;17.08;83.44;101223.47;5127589;27;20023;-61
2023/09/04 00:15:01;;;;;;;10.65;2.75;;;;;;;17.06;83.45;101217.41;5127297;28;20107;-61
2023/09/04 00:17:26;;;;;;;6.45;3.22;;;;;;;17.05;83.79;101227.00;5127757;28;20024;-60
2023/09/04 00:19:51;;;;;;;12.40;2.95;;;;;;;17.08;83.66;101226.09;5127188;28;20024;-61
2023/09/04 00:22:17;;;;;;;17.42;3.50;;;;;;;17.08;83.80;101221.72;5127245;28;20019;-60
2023/09/04 00:24:42;;;;;;;2.75;2.38;;;;;;;17.07;83.84;101219.09;5127214;28;20035;-61
2023/09/04 00:27:08;;;;;;;3.10;1.88;;;;;;;16.99;84.14;101203.56;5127099;28;20112;-61
2023/09/04 00:29:33;;;;;;;4.80;2.55;;;;;;;16.99;84.16;101203.56;5126989;28;20047;-61
2023/09/04 00:31:58;;;;;;;6.45;3.95;;;;;;;16.96;84.43;101201.84;5127297;28;20030;-61
2023/09/04 00:34:24;;;;;;;5.50;2.22;;;;;;;16.96;84.33;101198.38;5126964;28;20030;-60
2023/09/04 00:36:49;;;;;;;7.78;2.97;;;;;;;16.94;84.26;101203.66;5127078;28;20034;-60
2023/09/04 00:39:17;;;;;;;2.95;2.30;;;;;;;16.91;84.45;101203.72;5126428;28;20039;-60
2023/09/04 00:41:42;;;;;;;5.30;2.30;;;;;;;16.90;84.52;101209.00;5127018;28;20043;-60
2023/09/04 00:44:07;;;;;;;5.28;2.20;;;;;;;16.90;84.64;101206.38;5126897;28;20024;-60
2023/09/04 00:46:33;;;;;;;4.88;2.30;;;;;;;16.79;84.55;101204.84;5126764;28;20024;-61
2023/09/04 00:48:58;;;;;;;5.22;2.50;;;;;;;16.86;84.39;101223.94;5126691;28;20035;-60
2023/09/04 00:51:24;;;;;;;8.15;3.00;;;;;;;16.80;84.97;101217.06;5126804;28;20030;-60
2023/09/04 00:53:49;;;;;;;7.10;2.85;;;;;;;16.77;84.76;101224.13;5126107;28;20023;-61
2023/09/04 00:56:15;;;;;;;4.00;2.15;;;;;;;16.78;85.33;101231.97;5126761;28;20032;-62
2023/09/04 00:58:41;;;;;;;9.85;2.30;;;;;;;16.82;84.63;101225.75;5126602;28;20019;-61
2023/09/04 01:01:07;;;;;;;13.02;2.97;;;;;;;16.85;84.53;101232.72;5126419;28;20024;-61
2023/09/04 01:03:32;;;;;;;8.80;2.45;;;;;;;16.87;84.44;101244.00;5126384;28;20502;-60
2023/09/04 01:05:58;;;;;;;4.25;2.13;;;;;;;16.88;84.12;101242.25;5125954;28;20069;-60
2023/09/04 01:08:24;;;;;;;5.22;2.58;;;;;;;16.89;84.36;101251.84;5126655;28;20030;-62
2023/09/04 01:11:04;;;;;;;5.65;2.90;;;;;;;16.88;84.78;101258.00;5126201;28;20027;-61
2023/09/04 01:13:43;;;;;;;6.88;3.45;;;;;;;16.89;84.34;101257.09;5126449;28;20028;-62
2023/09/04 01:16:11;;;;;;;3.15;1.90;;;;;;;16.91;84.19;101264.03;5126098;28;20034;-61
2023/09/04 01:18:37;;;;;;;11.57;2.38;;;;;;;16.89;84.22;101251.84;5125582;28;20026;-60
2023/09/04 01:21:06;;;;;;;5.82;2.40;;;;;;;16.90;84.45;101272.78;5124678;28;20019;-60
2023/09/04 01:23:32;;;;;;;3.90;2.47;;;;;;;16.94;84.32;101268.34;5126180;28;20027;-61
2023/09/04 01:26:02;;;;;;;5.25;2.58;;;;;;;16.91;84.23;101256.19;5126051;28;20024;-61
2023/09/04 01:28:40;;;;;;;21.48;3.00;;;;;;;16.91;84.18;101265.78;5124876;28;20502;-62
2023/09/04 01:31:17;;;;;;;7.25;2.85;;;;;;;16.89;84.13;101264.94;5126206;28;20102;-61
2023/09/04 01:33:48;;;;;;;8.45;3.38;;;;;;;16.87;84.08;101261.53;5125563;28;20027;-58
2023/09/04 01:36:16;;;;;;;6.20;2.55;;;;;;;16.81;84.13;101263.38;5126044;28;20024;-61
2023/09/04 01:38:45;;;;;;;5.65;2.70;;;;;;;16.80;84.18;101264.28;5125654;28;20201;-62
2023/09/04 01:41:11;;;;;;;8.05;2.78;;;;;;;16.82;84.17;101274.72;5125688;28;20028;-61
2023/09/04 01:43:36;;;;;;;4.47;2.40;;;;;;;16.87;83.98;101285.13;5125885;27;20028;-61
2023/09/04 01:46:03;;;;;;;3.67;2.03;;;;;;;16.89;83.95;101285.94;5125910;28;20052;-61
2023/09/04 01:48:28;;;;;;;8.80;3.17;;;;;;;16.89;83.58;101284.19;5125641;28;20019;-61
2023/09/04 01:50:54;;;;;;;5.28;2.60;;;;;;;16.87;83.96;101287.75;5125512;28;20125;-61
2023/09/04 01:53:20;;;;;;;4.80;2.53;;;;;;;16.89;83.71;101293.81;5125638;28;20024;-61
2023/09/04 01:55:48;;;;;;;9.50;2.63;;;;;;;16.88;83.75;101284.22;5125518;28;20027;-61
2023/09/04 01:58:13;;;;;;;3.17;2.65;;;;;;;16.85;83.84;101288.63;5125778;28;20023;-62
2023/09/04 02:00:38;;;;;;;4.57;2.17;;;;;;;16.85;84.11;101282.53;5125434;27;20023;-61
2023/09/04 02:03:04;;;;;;;7.78;3.13;;;;;;;16.84;83.46;101283.41;5125349;28;20023;-61
2023/09/04 02:05:29;;;;;;;5.88;2.55;;;;;;;16.82;83.62;101278.19;5125265;28;20027;-62
2023/09/04 02:07:54;;;;;;;9.75;3.00;;;;;;;16.81;83.52;101284.34;5125537;28;20104;-61
2023/09/04 02:10:22;;;;;;;7.55;2.72;;;;;;;16.75;84.03;101279.22;5125349;28;20027;-63
2023/09/04 02:12:48;;;;;;;9.00;2.80;;;;;;;16.77;83.72;101280.06;5125554;28;20016;-61
2023/09/04 02:15:13;;;;;;;2.78;1.80;;;;;;;16.73;83.87;101275.78;5125285;28;20528;-61
2023/09/04 02:17:38;;;;;;;5.60;2.95;;;;;;;16.73;83.99;101281.00;5124814;28;20019;-61
2023/09/04 02:20:04;;;;;;;5.25;2.10;;;;;;;16.70;84.51;101286.31;5125243;28;20024;-61
2023/09/04 02:22:30;;;;;;;10.18;2.33;;;;;;;16.73;84.63;101299.38;5125493;28;20024;-61
2023/09/04 02:24:55;;;;;;;8.07;2.80;;;;;;;16.75;84.62;101308.06;5125480;28;20027;-62
2023/09/04 02:27:21;;;;;;;5.35;2.50;;;;;;;16.77;84.83;101301.06;5125403;28;20030;-61
2023/09/04 02:29:46;;;;;;;9.75;2.15;;;;;;;16.78;84.57;101300.16;5125128;28;20464;-61
2023/09/04 02:32:11;;;;;;;6.35;2.85;;;;;;;16.82;84.39;101303.56;5125409;28;20020;-61
2023/09/04 02:34:40;;;;;;;4.35;2.72;;;;;;;16.81;84.83;101305.31;5124920;28;20062;-61
2023/09/04 02:37:05;;;;;;;9.15;2.97;;;;;;;16.82;84.92;101308.81;5125305;28;20057;-61
2023/09/04 02:39:30;;;;;;;9.57;2.53;;;;;;;16.82;84.99;101301.78;5124901;28;20067;-61
2023/09/04 02:41:56;;;;;;;7.38;2.92;;;;;;;16.82;85.12;101299.19;5125111;28;20036;-61
2023/09/04 02:44:21;;;;;;;5.35;2.45;;;;;;;16.82;85.11;101312.28;5124844;28;20081;-61
2023/09/04 02:46:46;;;;;;;6.88;2.67;;;;;;;16.82;85.42;101309.66;5125292;28;20015;-61
2023/09/04 02:49:12;;;;;;;7.20;2.70;;;;;;;16.88;85.30;101313.06;5124919;28;20081;-61
2023/09/04 02:51:37;;;;;;;4.75;2.85;;;;;;;16.77;85.34;101295.81;5125018;28;20019;-61
2023/09/04 02:54:02;;;;;;;7.43;2.70;;;;;;;16.86;84.99;101307.84;5124657;28;20075;-62
2023/09/04 02:56:28;;;;;;;8.75;3.45;;;;;;;16.85;85.00;101320.09;5125008;28;20022;-61
2023/09/04 02:58:53;;;;;;;5.85;2.00;;;;;;;16.85;85.24;101314.00;5124938;28;20032;-61
2023/09/04 03:01:19;;;;;;;6.03;2.20;;;;;;;16.85;85.29;101314.00;5124881;28;20088;-61
2023/09/04 03:03:46;;;;;;;4.88;2.72;;;;;;;16.86;85.00;101320.97;5124938;28;20053;-61
2023/09/04 03:06:11;;;;;;;7.47;2.67;;;;;;;16.79;85.01;101304.47;5124984;28;20069;-62
2023/09/04 03:08:38;;;;;;;7.70;3.17;;;;;;;16.85;85.14;101304.34;5124874;28;20027;-60
2023/09/04 03:11:10;;;;;;;5.20;2.25;;;;;;;16.84;85.30;101318.38;5124762;28;20103;-61
2023/09/04 03:13:36;;;;;;;4.43;2.42;;;;;;;16.82;85.85;101311.44;5124649;28;20034;-60
2023/09/04 03:16:03;;;;;;;3.00;1.83;;;;;;;16.79;85.83;101307.09;5124824;28;20036;-60
2023/09/04 03:18:29;;;;;;;4.63;2.35;;;;;;;16.77;85.80;101301.06;5124950;28;20459;-61
2023/09/04 03:20:56;;;;;;;4.38;2.25;;;;;;;16.79;85.99;101307.09;5124678;28;20131;-61
2023/09/04 03:23:21;;;;;;;4.32;2.28;;;;;;;16.78;85.89;101307.13;5125060;28;20027;-61
2023/09/04 03:25:46;;;;;;;3.97;2.33;;;;;;;16.70;85.88;101295.06;5124536;28;20399;-60
2023/09/04 03:28:12;;;;;;;5.68;2.38;;;;;;;16.77;85.86;101300.19;5124349;28;20073;-61
2023/09/04 03:30:37;;;;;;;12.65;2.72;;;;;;;16.76;85.98;101312.41;5126668;28;20023;-61
2023/09/04 03:33:03;;;;;;;2.55;1.90;;;;;;;16.73;86.26;101321.22;5128410;28;20076;-60
2023/09/04 03:35:28;;;;;;;10.73;2.65;;;;;;;16.71;86.57;101323.00;5128100;28;20024;-61
2023/09/04 03:37:54;;;;;;;2.17;1.98;;;;;;;16.72;86.13;101324.72;5128382;28;20044;-60
2023/09/04 03:40:22;;;;;;;6.57;2.50;;;;;;;16.76;86.40;101317.66;5128348;28;20064;-61
2023/09/04 03:42:47;;;;;;;7.65;2.70;;;;;;;16.78;86.15;101313.25;5128212;28;20020;-61
2023/09/04 03:45:12;;;;;;;4.97;2.70;;;;;;;16.79;86.11;101322.84;5128093;28;20083;-61
2023/09/04 03:47:38;;;;;;;7.28;3.15;;;;;;;16.79;86.04;101317.59;5128253;27;20023;-61
2023/09/04 03:50:04;;;;;;;3.90;2.35;;;;;;;16.82;85.83;101335.88;5126395;28;20570;-62
2023/09/04 03:52:30;;;;;;;11.30;2.83;;;;;;;16.83;85.62;101321.91;5128229;28;20044;-61
2023/09/04 03:54:56;;;;;;;4.03;2.38;;;;;;;16.80;85.96;101321.09;5127832;28;20055;-61
2023/09/04 03:57:21;;;;;;;6.35;2.78;;;;;;;16.80;85.80;101315.84;5127676;28;20091;-61
2023/09/04 03:59:51;;;;;;;7.95;3.28;;;;;;;16.80;85.87;101321.97;5127731;28;20030;-61
2023/09/04 04:02:17;;;;;;;4.32;2.88;;;;;;;16.77;86.33;101326.41;5127904;28;20030;-62
2023/09/04 04:04:43;;;;;;;4.15;2.60;;;;;;;16.77;86.21;101316.78;5127373;28;20118;-61
2023/09/04 04:07:08;;;;;;;4.95;2.33;;;;;;;16.77;86.60;101321.16;5127862;28;20024;-61
2023/09/04 04:09:34;;;;;;;5.63;2.55;;;;;;;16.70;86.72;101318.66;5127306;28;20045;-62
2023/09/04 04:12:00;;;;;;;3.40;1.90;;;;;;;16.72;87.08;101322.09;5127465;28;20051;-61
2023/09/04 04:14:25;;;;;;;2.38;1.95;;;;;;;16.72;87.26;101323.88;5127518;28;20019;-63
2023/09/04 04:16:50;;;;;;;11.90;2.70;;;;;;;16.66;87.43;101310.88;5127733;28;20023;-61
2023/09/04 04:19:16;;;;;;;5.20;2.80;;;;;;;16.70;87.44;101310.78;5127373;28;20111;-62
2023/09/04 04:21:41;;;;;;;9.30;3.25;;;;;;;16.74;87.38;101327.34;5127391;28;20020;-62
2023/09/04 04:24:07;;;;;;;5.65;2.67;;;;;;;16.76;87.19;101315.03;5127300;28;20024;-63
2023/09/04 04:26:32;;;;;;;5.45;2.33;;;;;;;16.75;87.27;101318.56;5127422;28;20446;-62
2023/09/04 04:28:57;;;;;;;2.83;1.83;;;;;;;16.76;87.19;101308.94;5127176;28;20027;-61
2023/09/04 04:31:23;;;;;;;6.60;2.80;;;;;;;16.77;86.87;101308.91;5127009;27;20069;-61
2023/09/04 04:33:48;;;;;;;13.88;2.33;;;;;;;16.73;87.37;101308.09;5127107;28;20030;-61
2023/09/04 04:36:13;;;;;;;5.03;2.70;;;;;;;16.70;87.22;101292.44;5126949;28;20080;-61
2023/09/04 04:38:39;;;;;;;3.65;2.35;;;;;;;16.77;87.25;101308.91;5127255;28;20043;-61
2023/09/04 04:41:04;;;;;;;9.93;2.47;;;;;;;16.83;86.92;101316.66;5126269;28;20107;-61
2023/09/04 04:43:30;;;;;;;4.72;2.38;;;;;;;16.76;86.97;101316.81;5127542;28;20034;-61
2023/09/04 04:45:55;;;;;;;10.43;2.95;;;;;;;16.83;86.89;101327.16;5142897;27;20057;-60
2023/09/04 04:48:21;;;;;;;10.05;2.75;;;;;;;16.87;86.82;101327.94;5127486;28;20023;-61
2023/09/04 04:50:46;;;;;;;6.28;2.63;;;;;;;16.93;86.53;101329.59;5127091;28;20015;-60
2023/09/04 04:53:11;;;;;;;5.25;2.17;;;;;;;16.93;86.34;101321.72;5125582;28;20064;-61
2023/09/04 04:55:37;;;;;;;4.70;2.30;;;;;;;16.93;86.31;101317.31;5127151;28;20031;-60
2023/09/04 04:58:02;;;;;;;6.88;1.92;;;;;;;16.98;86.16;101335.59;5127179;28;20027;-60
2023/09/04 05:00:28;;;;;;;5.43;2.50;;;;;;;16.97;86.07;101336.47;5126934;28;20031;-61
2023/09/04 05:02:53;;;;;;;4.35;2.30;;;;;;;16.97;86.33;101333.84;5126946;28;20049;-62
2023/09/04 05:05:19;;;;;;;3.75;2.25;;;;;;;17.01;86.33;101340.78;5126650;28;20026;-61
2023/09/04 05:07:47;;;;;;;2.47;1.63;;;;;;;17.03;85.74;101333.72;5125626;28;20023;-61
2023/09/04 05:10:13;;;;;;;5.88;2.28;;;;;;;17.05;85.60;101339.81;5126796;28;20051;-61
2023/09/04 05:12:38;;;;;;;12.18;2.78;;;;;;;17.03;85.82;101333.72;5126677;28;20463;-62
2023/09/04 05:15:05;;;;;;;6.10;2.20;;;;;;;17.06;85.83;101333.66;5125413;28;20023;-60
2023/09/04 05:17:30;;;;;;;5.95;2.45;;;;;;;17.07;85.83;101335.41;5126799;28;20076;-60
2023/09/04 05:19:55;;;;;;;13.18;3.00;;;;;;;17.11;85.69;101343.25;5126486;28;20027;-61
2023/09/04 05:22:21;;;;;;;3.10;2.05;;;;;;;17.12;85.30;101337.09;5126703;28;20031;-61
2023/09/04 05:24:46;;;;;;;8.63;2.30;;;;;;;17.18;85.13;101339.59;5126267;28;20459;-61
2023/09/04 05:27:11;;;;;;;8.25;2.83;;;;;;;17.22;84.85;101336.00;5126461;28;20076;-61
2023/09/04 05:29:37;;;;;;;4.72;2.25;;;;;;;17.21;84.71;101334.28;5126642;28;20030;-61
2023/09/04 05:32:03;;;;;;;3.10;1.65;;;;;;;17.22;84.77;101334.22;5126644;28;20455;-61
2023/09/04 05:34:28;;;;;;;2.22;1.55;;;;;;;17.22;85.07;101349.13;5124836;28;20063;-61
2023/09/04 05:36:55;;;;;;;3.70;1.95;;;;;;;17.18;84.99;101337.84;5126236;28;20025;-61
2023/09/04 05:39:20;;;;;;;4.40;2.67;;;;;;;17.14;85.17;101348.44;5125959;28;20047;-61
2023/09/04 05:41:46;;;;;;;2.28;1.67;;;;;;;17.14;84.88;101351.06;5124905;28;20068;-61
2023/09/04 05:44:11;;;;;;;6.32;1.98;;;;;;;17.14;85.15;101349.28;5126074;28;20493;-61
2023/09/04 05:46:36;;;;;;;9.02;2.15;;;;;;;17.15;85.15;101356.25;5126081;28;20024;-62
2023/09/04 05:49:02;;;;;;;5.05;2.85;;;;;;;17.12;85.59;101363.31;5126101;28;20029;-61
2023/09/04 05:51:28;;;;;;;18.40;3.25;;;;;;;17.11;85.08;101359.84;5126095;28;20020;-63
2023/09/04 05:53:53;;;;;;;15.68;3.08;;;;;;;17.09;85.77;101364.25;5125867;28;20031;-62
2023/09/04 05:56:18;;;;;;;8.35;2.33;;;;;;;17.12;85.19;101373.81;5125789;28;20019;-61
2023/09/04 05:58:48;;;;;;;5.72;2.10;;;;;;;17.12;85.48;101363.31;5125862;28;20027;-62
2023/09/04 06:01:15;;;;;;;8.02;2.83;;;;;;;17.01;85.47;101351.28;5125548;28;20045;-63
2023/09/04 06:03:41;;;;;;;3.47;1.90;;;;;;;17.06;85.48;101365.13;5141868;27;20031;-62
2023/09/04 06:06:07;;;;;;;6.70;2.35;;;;;;;17.07;85.36;101366.00;5125578;28;20019;-62
2023/09/04 06:08:34;;;;;;;8.20;2.22;;;;;;;17.18;85.55;101368.44;5125926;28;20088;-61
2023/09/04 06:11:00;;;;;;;4.00;2.40;;;;;;;17.23;85.29;101366.59;5125762;28;20023;-62
2023/09/04 06:13:25;;;;;;;2.92;1.98;;;;;;;17.26;85.28;101370.91;5125873;28;20024;-61
2023/09/04 06:15:51;;;;;;;5.95;2.60;;;;;;;17.27;85.50;101367.41;5125730;28;20177;-62
2023/09/04 06:18:16;;;;;;;4.47;2.75;;;;;;;17.27;85.53;101370.03;5125825;28;20057;-61
2023/09/04 06:20:42;;;;;;;3.70;2.15;;;;;;;17.27;85.38;101363.00;5125395;28;20032;-62
2023/09/04 06:23:07;;;;;;;4.10;2.95;;;;;;;17.26;85.52;101358.66;5125651;28;20031;-62
2023/09/04 06:25:38;;;;;;;9.63;2.83;;;;;;;17.22;85.58;101357.84;5125579;28;20020;-62
2023/09/04 06:28:05;;;;;;;3.53;2.13;;;;;;;17.23;85.60;101361.34;5125977;28;20641;-62
2023/09/04 06:30:30;;;;;;;5.53;2.28;;;;;;;17.30;85.79;101368.19;5125587;28;20063;-62
2023/09/04 06:32:55;;;;;;;6.35;2.42;;;;;;;17.33;85.55;101360.25;5125717;28;20020;-62
2023/09/04 06:35:21;;;;;;;9.73;2.72;;;;;;;17.36;85.81;101366.31;5125332;28;20028;-62
2023/09/04 06:37:46;;;;;;;5.28;2.40;;;;;;;17.38;85.17;101378.50;5125784;28;20020;-61
2023/09/04 06:40:11;;;;;;;3.67;1.88;;;;;;;17.53;86.05;101379.06;5125393;28;20016;-62
2023/09/04 06:42:37;;;;;;;12.82;2.58;;;;;;;17.87;86.61;101383.56;5125518;28;20044;-62
2023/09/04 06:45:02;;;;;;;11.57;2.78;;;;;;;18.27;86.85;101384.41;5125293;28;20049;-63
2023/09/04 06:47:28;;;;;;;10.25;2.58;;;;;;;18.62;86.63;101380.88;5125403;28;20038;-62
2023/09/04 06:49:53;;;;;;;11.52;3.53;;;;;;;18.93;85.73;101380.06;5125360;28;20027;-62
2023/09/04 06:52:18;;;;;;;4.55;2.22;;;;;;;19.22;85.38;101380.16;5125625;28;20104;-62
2023/09/04 06:54:44;;;;;;;11.00;3.28;;;;;;;19.46;84.33;101372.44;5125281;28;20518;-62
2023/09/04 06:57:09;;;;;;;13.73;2.75;;;;;;;19.73;84.59;101375.97;5125418;28;20069;-63
2023/09/04 06:59:34;;;;;;;13.57;2.80;;;;;;;20.06;82.57;101375.81;5125305;28;20076;-63
2023/09/04 07:02:01;;;;;;;5.25;2.97;;;;;;;20.32;82.21;101373.22;5125318;28;20028;-63
2023/09/04 07:04:26;;;;;;;6.10;2.85;;;;;;;20.62;81.28;101375.72;5128574;28;20804;-63
2023/09/04 07:06:51;;;;;;;7.72;2.65;;;;;;;21.19;81.50;101369.31;5129290;27;20026;-62
2023/09/04 07:09:17;;;;;;;6.55;2.35;;;;;;;21.85;80.70;101372.06;5129644;28;20098;-63
2023/09/04 07:11:42;;;;;;;6.47;2.28;;;;;;;22.36;77.11;101375.25;5129232;28;20027;-62
2023/09/04 07:14:07;;;;;;;5.00;2.70;;;;;;;23.05;77.52;101366.13;5129213;28;20028;-63
2023/09/04 07:16:37;;;;;;;6.80;2.13;;;;;;;23.77;76.69;101366.31;5129145;28;20065;-63
2023/09/04 07:19:03;;;;;;;6.10;2.92;;;;;;;24.31;73.56;101373.38;5128963;28;20035;-63
2023/09/04 07:21:28;;;;;;;6.70;2.78;;;;;;;24.83;70.86;101382.19;5128860;28;20016;-63
2023/09/04 07:23:53;;;;;;;14.73;2.90;;;;;;;25.16;67.98;101383.13;5129049;28;20028;-63
2023/09/04 07:26:18;;;;;;;4.68;2.03;;;;;;;25.33;65.85;101374.22;5129108;28;20028;-62
2023/09/04 07:28:44;;;;;;;5.47;2.05;;;;;;;25.50;63.81;101383.91;5128972;28;20381;-62
2023/09/04 07:31:17;;;;;;;6.68;2.33;;;;;;;25.25;60.65;101384.41;5128837;28;20114;-63
2023/09/04 07:33:42;;;;;;;2.90;2.38;;;;;;;25.00;58.14;101378.66;5128812;28;20019;-62
2023/09/04 07:36:07;;;;;;;3.42;1.80;;;;;;;24.88;60.33;101373.97;5128521;28;20429;-62
2023/09/04 07:38:33;;;;;;;8.70;1.60;;;;;;;25.01;60.68;101374.19;5128583;28;20073;-63
2023/09/04 07:41:00;;;;;;;1.60;1.30;;;;;;;25.09;60.04;101373.78;5128504;28;20029;-63
2023/09/04 07:43:25;;;;;;;6.72;1.98;;;;;;;25.02;57.36;101375.06;5128925;28;20027;-63
2023/09/04 07:45:52;;;;;;;2.40;1.35;;;;;;;24.90;59.02;101381.88;5128684;28;20035;-63
2023/09/04 07:48:18;;;;;;;6.85;2.80;;;;;;;24.88;58.34;101381.94;5128681;28;20049;-62
2023/09/04 07:50:44;;;;;;;2.05;1.40;;;;;;;25.10;59.13;101397.59;5128373;28;20023;-62
2023/09/04 07:53:09;;;;;;;5.60;1.98;;;;;;;25.35;57.03;101398.91;5128477;28;20071;-63
2023/09/04 07:55:34;;;;;;;8.25;1.65;;;;;;;25.23;56.24;101384.50;5128134;28;20481;-63
2023/09/04 07:57:59;;;;;;;4.90;1.55;;;;;;;25.21;55.25;101410.28;5128561;28;20035;-63
2023/09/04 08:00:25;;;;;;;4.00;1.73;;;;;;;25.36;56.93;101395.31;5128119;28;20379;-63
2023/09/04 08:02:51;;;;;;;3.22;1.38;;;;;;;25.77;56.21;101408.19;5128087;28;20083;-63
2023/09/04 08:05:16;;;;;;;8.95;1.77;;;;;;;26.19;55.57;101409.28;5127931;28;20034;-63
2023/09/04 08:07:42;;;;;;;4.60;1.65;;;;;;;26.67;55.98;101407.41;5126828;28;20023;-63
2023/09/04 08:10:07;;;;;;;1.25;0.82;;;;;;;27.17;55.97;101410.56;5128155;28;20383;-62
2023/09/04 08:12:33;;;;;;;4.10;1.23;;;;;;;27.53;54.16;101396.75;5128035;28;20020;-63
2023/09/04 08:14:58;;;;;;;3.70;1.88;;;;;;;27.26;52.17;101418.91;5126781;28;20524;-63
2023/09/04 08:17:25;;;;;;;4.93;1.98;;;;;;;26.78;51.81;101425.38;5128093;28;20027;-63
2023/09/04 08:19:51;;;;;;;6.07;1.88;;;;;;;26.29;52.55;101428.25;5127705;28;20023;-62
2023/09/04 08:22:16;;;;;;;3.58;1.95;;;;;;;25.80;52.88;101431.94;5127931;27;20027;-63
2023/09/04 08:24:42;;;;;;;5.22;1.65;;;;;;;25.31;52.76;101439.88;5127693;28;20042;-62
2023/09/04 08:27:07;;;;;;;3.47;1.75;;;;;;;25.06;54.53;101443.00;5127772;28;20019;-62
2023/09/04 08:29:32;;;;;;;3.28;1.77;;;;;;;25.03;54.38;101446.72;5126452;28;20239;-63
2023/09/04 08:31:58;;;;;;;2.75;1.48;;;;;;;25.08;54.83;101449.13;5127790;28;20398;-63
2023/09/04 08:34:23;;;;;;;5.40;1.90;;;;;;;25.21;54.82;101431.56;5127386;28;20024;-63
2023/09/04 08:36:49;;;;;;;2.70;1.60;;;;;;;25.13;53.72;101429.31;5127521;28;20040;-63
2023/09/04 08:39:14;;;;;;;4.93;1.70;;;;;;;24.86;54.53;101435.13;5127479;28;20048;-63
2023/09/04 08:41:41;;;;;;;1.88;1.30;;;;;;;24.80;54.33;101435.47;5127335;28;20027;-62
2023/09/04 08:44:08;;;;;;;5.30;2.28;;;;;;;24.88;53.86;101429.75;5127346;28;20032;-63
2023/09/04 08:46:35;;;;;;;14.27;2.00;;;;;;;24.73;54.51;101444.66;5127291;28;20546;-62
2023/09/04 08:49:01;;;;;;;4.40;1.60;;;;;;;24.59;54.64;101442.72;5127446;28;20023;-62
2023/09/04 08:51:28;;;;;;;4.35;2.00;;;;;;;24.53;55.20;101435.09;5127183;28;20024;-63
2023/09/04 08:53:55;;;;;;;3.97;2.17;;;;;;;24.83;54.83;101445.06;5127208;28;20383;-63
2023/09/04 08:56:21;;;;;;;4.40;1.95;;;;;;;25.30;54.01;101439.97;5127194;28;20042;-62
2023/09/04 08:58:47;;;;;;;2.78;1.63;;;;;;;25.79;53.89;101439.06;5127263;28;20020;-62
2023/09/04 09:01:14;;;;;;;9.77;2.90;;;;;;;26.20;52.37;101447.41;5126919;28;20042;-63
2023/09/04 09:03:42;;;;;;;10.50;1.77;;;;;;;26.35;52.72;101441.22;5127340;28;20024;-63
2023/09/04 09:06:08;;;;;;;3.22;1.38;;;;;;;26.31;52.27;101433.47;5126811;28;20019;-63
2023/09/04 09:08:34;;;;;;;5.05;2.10;;;;;;;26.18;51.84;101439.50;5126903;28;20020;-64
2023/09/04 09:11:01;;;;;;;11.52;1.85;;;;;;;26.06;52.56;101437.56;5126836;28;20042;-63
2023/09/04 09:13:26;;;;;;;6.70;2.00;;;;;;;26.42;52.46;101441.69;5127061;28;20023;-63
2023/09/04 09:15:54;;;;;;;2.67;1.85;;;;;;;26.62;51.76;101447.63;5126783;28;20072;-62
2023/09/04 09:18:42;;;;;;;2.03;1.27;;;;;;;27.08;51.95;101440.44;5126864;28;20031;-62
2023/09/04 09:21:25;;;;;;;4.93;1.58;;;;;;;27.44;49.79;101427.56;5126583;28;20112;-62
2023/09/04 09:24:12;;;;;;;4.82;2.00;;;;;;;27.40;51.02;101415.34;5126489;28;20566;-62
2023/09/04 09:26:50;;;;;;;3.92;1.52;;;;;;;27.37;49.76;101424.41;5126210;28;20167;-62
2023/09/04 09:29:19;;;;;;;5.45;1.90;;;;;;;27.81;49.43;101422.50;5126764;28;20030;-63
2023/09/04 09:31:45;;;;;;;4.00;1.42;;;;;;;28.00;48.88;101434.66;5126636;28;20034;-63
2023/09/04 09:34:12;;;;;;;4.28;2.20;;;;;;;27.64;49.40;101431.59;5126357;28;20058;-62
2023/09/04 09:36:38;;;;;;;3.33;1.33;;;;;;;27.59;49.52;101431.03;5126252;28;20023;-63
2023/09/04 09:39:05;;;;;;;6.65;2.10;;;;;;;27.39;50.40;101424.31;5126478;28;20050;-63
2023/09/04 09:41:31;;;;;;;2.67;1.40;;;;;;;27.56;49.82;101425.88;5142141;27;20020;-62
2023/09/04 09:44:01;;;;;;;6.32;2.20;;;;;;;27.45;50.33;101431.91;5126269;28;20031;-62
2023/09/04 09:46:28;;;;;;;2.90;1.77;;;;;;;27.79;50.02;101428.91;5126415;28;20034;-63
2023/09/04 09:48:54;;;;;;;5.38;1.50;;;;;;;28.17;49.30;101441.50;5126161;28;20384;-63
2023/09/04 09:51:20;;;;;;;2.10;1.52;;;;;;;28.41;48.63;101435.50;5126126;28;20026;-62
2023/09/04 09:53:50;;;;;;;9.60;1.90;;;;;;;28.43;47.19;101438.94;5126146;28;20031;-59
2023/09/04 09:56:17;;;;;;;5.13;2.72;;;;;;;28.08;47.21;101434.13;5126017;28;20038;-62
2023/09/04 09:58:49;;;;;;;2.65;1.60;;;;;;;28.17;47.64;101440.66;5126130;28;20399;-62
2023/09/04 10:01:16;;;;;;;4.25;1.85;;;;;;;28.70;47.50;101443.31;5126053;28;20026;-63
2023/09/04 10:03:47;;;;;;;6.10;1.67;;;;;;;29.16;45.77;101449.06;5125947;28;20043;-63
2023/09/04 10:06:23;;;;;;;4.60;2.15;;;;;;;29.46;45.77;101443.44;5125746;28;20110;-62
2023/09/04 10:08:51;;;;;;;4.03;1.77;;;;;;;29.91;44.79;101437.50;5125919;28;20031;-63
2023/09/04 10:11:17;;;;;;;6.78;1.58;;;;;;;29.60;44.29;101446.00;5125904;28;20047;-63
2023/09/04 10:14:04;;;;;;;2.85;2.13;;;;;;;29.40;44.27;101448.28;5126010;28;20023;-63
2023/09/04 10:16:40;;;;;;;2.30;1.30;;;;;;;29.36;45.56;101453.94;5125901;28;20027;-63
2023/09/04 10:19:10;;;;;;;1.45;1.15;;;;;;;29.28;45.18;101451.84;5125735;28;20023;-62
2023/09/04 10:21:40;;;;;;;1.88;1.35;;;;;;;29.34;43.89;101453.19;5125623;28;20049;-63
2023/09/04 10:24:13;;;;;;;3.57;1.53;;;;;;;28.76;44.36;101450.03;5125778;28;20380;-63
2023/09/04 10:26:50;;;;;;;1.77;1.33;;;;;;;28.87;44.46;101448.44;5125762;28;20547;-63
2023/09/04 10:29:24;;;;;;;6.90;1.45;;;;;;;29.18;44.32;101457.84;5125785;28;20424;-62
2023/09/04 10:31:51;;;;;;;3.83;1.80;;;;;;;29.39;44.25;101454.59;5125921;28;20016;-63
2023/09/04 10:34:16;;;;;;;3.08;1.58;;;;;;;29.86;43.57;101445.03;5125540;28;20092;-63
2023/09/04 10:36:42;;;;;;;5.38;2.08;;;;;;;29.64;43.33;101447.47;5125570;28;20024;-64
2023/09/04 10:39:08;;;;;;;2.75;1.15;;;;;;;29.85;43.49;101456.69;5128515;28;20052;-63
2023/09/04 10:41:35;;;;;;;3.60;1.10;;;;;;;30.09;43.08;101454.00;5129689;28;20027;-62
2023/09/04 10:44:00;;;;;;;8.38;1.83;;;;;;;30.22;42.34;101453.09;5129776;28;20042;-63
2023/09/04 10:46:26;;;;;;;4.25;1.23;;;;;;;30.03;43.10;101447.28;5129626;28;20020;-62
2023/09/04 10:48:53;;;;;;;1.83;1.40;;;;;;;30.04;42.44;101449.00;5129827;28;20020;-63
2023/09/04 10:51:31;;;;;;;2.55;1.45;;;;;;;30.20;41.81;101447.00;5129651;28;20103;-63
2023/09/04 10:54:01;;;;;;;2.45;1.45;;;;;;;30.22;42.15;101440.56;5129608;28;20080;-63
2023/09/04 10:56:26;;;;;;;4.70;1.70;;;;;;;30.14;42.25;101432.22;5129593;28;20016;-62
2023/09/04 10:59:05;;;;;;;2.10;1.45;;;;;;;30.14;41.27;101437.59;5129612;28;20029;-63
2023/09/04 11:01:37;;;;;;;2.50;1.60;;;;;;;30.45;41.86;101435.25;5127929;28;20031;-63
2023/09/04 11:04:05;;;;;;;2.22;1.40;;;;;;;30.53;40.29;101434.66;5129606;28;20106;-63
2023/09/04 11:06:39;;;;;;;5.03;2.13;;;;;;;30.43;39.39;101427.34;5129019;28;20087;-64
2023/09/04 11:09:05;;;;;;;3.08;1.50;;;;;;;30.46;39.48;101430.75;5128066;28;20073;-64
2023/09/04 11:11:31;;;;;;;3.95;1.10;;;;;;;30.63;39.46;101429.44;5128990;28;20071;-63
2023/09/04 11:14:02;;;;;;;1.85;1.15;;;;;;;30.73;38.99;101440.28;5128808;28;20027;-64
2023/09/04 11:16:36;;;;;;;2.83;0.98;;;;;;;30.69;39.57;101423.59;5128813;28;20023;-64
2023/09/04 11:19:03;;;;;;;3.33;1.20;;;;;;;30.14;39.39;101432.22;5129390;28;20112;-63
2023/09/04 11:21:36;;;;;;;3.20;1.38;;;;;;;29.79;39.90;101423.22;5128491;28;20050;-63